• Join FlightAware (Why Join?)
  • Login
  • US Flag 
04:50AM EDT


 

Airport Tracker/Info


-or-


 

Live Flight TrackerFlight Track Log ✈ GJS3706 ✈ 05-May-2013 ✈ KBTV - KORD

Flight Track Log - Related Links

Times and Time Zones

All times are in EDT time to prevent confusion due to time zone crossing. See the GJS3706 flight status page for this flight to view local times or setup timezone preferences in your user account.

Time Position Orientation Groundspeed Altitude Reporting Facility
EDT Latitude Longitude Course Direction KTS MPH feet Rate Location/Type
11:22AM 44.2729 -74.2511 255° West  Level FlightAware Approximate
11:23AM 44.2504 -74.3892 258° West  Level FlightAware Approximate
11:24AM 44.2287 -74.5275 257° West  Level FlightAware Approximate
11:25AM 44.2037 -74.6647 254° West  Level FlightAware Approximate
11:26AM 44.1765 -74.8010 255° West  Level FlightAware Approximate
11:27AM 44.1493 -74.9373 255° West  Level FlightAware Approximate
11:28AM 44.1220 -75.0735 254° West  Level FlightAware Approximate
11:29AM 44.1024 -75.2000 259° West  Level FlightAware Approximate
11:30AM 44.0784 -75.3251 255° West  Level FlightAware Approximate
11:31AM 44.0534 -75.4498 254° West  Level FlightAware Approximate
11:32AM 44.0294 -75.5748 255° West  Level FlightAware Approximate
11:33AM 44.0054 -75.6998 255° West  Level FlightAware Approximate
11:34AM 43.9813 -75.8246 255° West  Level FlightAware Approximate
11:35AM 43.9611 -75.9506 261° West  Level FlightAware Approximate
11:36AM 43.9473 -76.0784 263° West  Level FlightAware Approximate
11:37AM 43.9352 -76.2064 263° West  Level FlightAware Approximate
11:38AM 43.9230 -76.3344 262° West  Level FlightAware Approximate
11:39AM 43.9093 -76.4740 262° West  Level FlightAware Approximate
11:39AM 44.4172 -73.1811 262° West 229 264 3,300  Level Boston Center
11:40AM 43.8987 -76.6138 263° West  Level FlightAware Approximate
11:40AM 44.4000 -73.2739 255° West 243 280 5,500  Level Boston Center
11:41AM 43.8857 -76.7535 263° West  Level FlightAware Approximate
11:41AM 44.3806 -73.3753 255° West 273 314 8,400  Level Boston Center
11:42AM 43.8724 -76.8930 263° West  Level FlightAware Approximate
11:42AM 44.3358 -73.4617 234° Southwest 290 334 10,400  Level Boston Center
11:43AM 43.8590 -77.0325 262° West  Level FlightAware Approximate
11:43AM 44.2808 -73.5739 236° Southwest 339 390 11,700  Level Boston Center
11:44AM 43.8455 -77.1720 262° West  Level FlightAware Approximate
11:44AM 44.2647 -73.7186 261° West 368 423 13,300  Level Boston Center
11:45AM 44.2461 -73.8747 261° West 386 444 14,800 1,500 Climbing Boston Center
11:46AM 44.2253 -74.0364 260° West 414 476 16,400 1,500 Climbing Boston Center
11:47AM 44.2064 -74.1953 261° West 428 493 17,900 1,260 Climbing Boston Center
11:48AM 44.1847 -74.3653 260° West 428 493 19,000 1,140 Climbing Boston Center
11:49AM 44.1631 -74.5353 260° West 439 505 20,200 1,080 Climbing Boston Center
11:50AM 44.1411 -74.7083 260° West 450 518 21,200 1,140 Climbing Boston Center
11:51AM 44.1167 -74.8836 259° West 460 529 22,500 1,260 Climbing Boston Center
11:52AM 44.0939 -75.0592 260° West 466 536 23,800 1,020 Climbing Boston Center
11:53AM 44.0708 -75.2403 260° West 471 542 24,600 900 Climbing Boston Center
11:54AM 44.0456 -75.4181 259° West 471 542 25,600 960 Climbing Boston Center
11:55AM 44.0200 -75.5989 259° West 476 548 26,600 960 Climbing Boston Center
11:56AM 43.9961 -75.7822 260° West 483 556 27,600 1,080 Climbing Boston Center
11:57AM 43.9697 -75.9625 259° West 483 556 28,800 1,140 Climbing Boston Center
11:58AM 43.9497 -76.1375 261° West 477 549 29,900 1,020 Climbing Boston Center
11:59AM 43.9333 -76.3153 263° West 477 549 30,900 1,440 Climbing Boston Center
12:00PM 43.9192 -76.4872 264° West 467 537 32,800 1,500 Climbing Boston Center
12:01PM 43.9047 -76.6564 263° West 461 531 33,900 840 Climbing Boston Center
12:01PM 43.8667 -76.8167 252° West 440 506 34,500 660 Climbing Toronto Center
12:02PM 43.8500 -76.9667 261° West 450 518 35,300 960 Climbing Toronto Center
12:03PM 43.8500 -77.1333 270° West 450 518 36,500 900 Climbing Toronto Center
12:04PM 43.8667 -77.3167 277° West 430 495 37,100 540 Climbing Toronto Center
12:05PM 43.9000 -77.4500 289° West 440 506 37,600 420 Climbing Toronto Center
12:06PM 43.9333 -77.6500 283° West 440 506 38,000 180 Climbing Toronto Center
12:07PM 43.9500 -77.8000 279° West 440 506 38,000  Level Toronto Center
12:08PM 43.9500 -77.9667 270° West 430 495 38,000  Level Toronto Center
12:09PM 43.9167 -78.1333 255° West 430 495 38,000  Level Toronto Center
12:10PM 43.9000 -78.2833 261° West 430 495 38,000  Level Toronto Center
12:11PM 43.8833 -78.4500 262° West 430 495 38,000  Level Toronto Center
12:12PM 43.8667 -78.6167 262° West 430 495 38,000  Level Toronto Center
12:13PM 43.8500 -78.7833 262° West 430 495 38,000  Level Toronto Center
12:14PM 43.8167 -78.9333 253° West 430 495 38,000  Level Toronto Center
12:15PM 43.8000 -79.1167 263° West 430 495 38,000  Level Toronto Center
12:16PM 43.7833 -79.2667 261° West 430 495 38,000  Level Toronto Center
12:17PM 43.7500 -79.4333 255° West 420 483 38,000  Level Toronto Center
12:18PM 43.7333 -79.5833 261° West 430 495 38,000  Level Toronto Center
12:19PM 43.7167 -79.7667 263° West 430 495 38,000  Level Toronto Center
12:20PM 43.6833 -79.9167 253° West 430 495 38,000  Level Toronto Center
12:21PM 43.6667 -80.0667 261° West 420 483 38,000  Level Toronto Center
12:22PM 43.6333 -80.2333 255° West 430 495 38,000  Level Toronto Center
12:23PM 43.6167 -80.4000 262° West 430 495 38,000  Level Toronto Center
12:24PM 43.6000 -80.5500 261° West 430 495 38,000  Level Toronto Center
12:25PM 43.5667 -80.7167 255° West 430 495 38,000  Level Toronto Center
12:26PM 43.5333 -80.8833 255° West 430 495 38,000  Level Toronto Center
12:27PM 43.5167 -81.0667 263° West 430 495 38,000  Level Toronto Center
12:28PM 43.4833 -81.2167 253° West 430 495 38,000  Level Toronto Center
12:29PM 43.4667 -81.3500 260° West 430 495 38,000  Level Toronto Center
12:30PM 43.4333 -81.5333 256° West 430 495 38,000  Level Toronto Center
12:31PM 43.4000 -81.6833 253° West 420 483 38,000  Level Toronto Center
12:32PM 43.3000 -81.7667 211° Southwest 430 495 38,000  Level Toronto Center
12:33PM 43.2000 -81.8500 211° Southwest 430 495 38,000  Level Toronto Center
12:34PM 43.1000 -81.9333 211° Southwest 420 483 38,000  Level Toronto Center
12:35PM 43.0167 -82.0500 226° Southwest 420 483 38,000  Level Toronto Center
12:36PM 43.0000 -82.2167 262° West 420 483 38,000  Level Toronto Center
12:37PM 43.0000 -82.3667 270° West 430 495 38,000 -240 Level Toronto Center
12:38PM 43.0000 -82.5500 270° West 440 506 37,600 -660 Descending Toronto Center
12:39PM 42.9833 -82.7167 262° West 440 506 36,700 -960 Descending Toronto Center
12:41PM 42.9917 -82.8850 274° West 436 502 35,700 -1,020 Descending Cleveland Center
12:42PM 42.9881 -83.0525 268° West 441 507 34,700 -1,020 Descending Cleveland Center
12:43PM 42.9844 -83.2169 268° West 441 507 33,700 -1,020 Descending Cleveland Center
12:44PM 42.9783 -83.3842 267° West 441 507 32,700 -900 Descending Cleveland Center
12:45PM 42.9722 -83.5514 267° West 441 507 32,000 -360 Descending Cleveland Center
12:46PM 42.9678 -83.7186 268° West 441 507 32,000  Level Cleveland Center
12:47PM 42.9528 -83.8825 263° West 441 507 32,000  Level Cleveland Center
12:48PM 42.9375 -84.0461 263° West 441 507 32,000  Level Cleveland Center
12:49PM 42.9200 -84.2153 262° West 446 513 32,000  Level Cleveland Center
12:50PM 42.9064 -84.3761 263° West 441 507 32,000  Level Cleveland Center
12:50PM 42.8986 -84.4450 261° West 443 510 32,000  Level Chicago Center
12:51PM 42.8817 -84.6106 262° West 443 510 32,000  Level Chicago Center
12:52PM 42.8642 -84.7767 262° West 444 511 32,000  Level Chicago Center
12:53PM 42.8436 -84.9733 262° West 437 503 32,000  Level Chicago Center
12:54PM 42.8264 -85.1392 262° West 440 506 32,000  Level Chicago Center
12:55PM 42.8081 -85.3025 261° West 439 505 32,000  Level Chicago Center
12:56PM 42.7900 -85.4658 261° West 435 501 32,000 -1,020 Level Chicago Center
12:57PM 42.7642 -85.6256 258° West 432 497 30,000 -2,400 Descending Chicago Center
12:58PM 42.7356 -85.7814 256° West 425 489 27,100 -2,700 Descending Chicago Center
12:59PM 42.7078 -85.9322 256° West 415 478 24,500 -2,760 Descending Chicago Center
01:00PM 42.6764 -86.1069 256° West 399 459 21,500 -2,160 Descending Chicago Center
01:01PM 42.6503 -86.2475 256° West 388 447 20,100 -1,080 Descending Chicago Center
01:02PM 42.6236 -86.3847 255° West 378 435 19,300 -1,500 Descending Chicago Center
01:03PM 42.5994 -86.5197 256° West 372 428 17,000 -2,040 Descending Chicago Center
01:04PM 42.5742 -86.6506 255° West 362 417 15,100 -1,740 Descending Chicago Center
01:06PM 42.5497 -86.7722 255° West 340 391 13,500 -1,500 Descending Chicago Center
01:07PM 42.5186 -86.8833 249° West 320 368 12,000 -1,380 Descending Chicago Center
01:08PM 42.4836 -87.0117 250° West 308 354 10,700 -1,020 Descending Chicago Center
01:09PM 42.4533 -87.1169 249° West 301 346 10,000 -360 Descending Chicago Center
01:10PM 42.4236 -87.2231 249° West 304 350 10,000  Level Chicago Center
01:11PM 42.3944 -87.3306 250° West 306 352 10,000 -180 Level Chicago Center
01:12PM 42.3633 -87.4433 250° West 305 351 9,700 -660 Descending Chicago Center
01:13PM 42.3308 -87.5458 247° West 303 349 8,700 -1,020 Descending Chicago Center
01:14PM 42.2722 -87.6075 218° Southwest 268 308 7,700 -840 Descending Chicago Center
01:15PM 42.2044 -87.6769 217° Southwest 257 296 7,000 -360 Descending Chicago Center
01:16PM 42.1544 -87.7294 218° Southwest 231 266 7,000  Level Chicago Center
01:17PM 42.1103 -87.7756 218° Southwest 212 244 7,000  Level Chicago Center
01:17PM 42.1000 -87.8167 251° West 214 246 7,000  Level Chicago TRACON
01:18PM 42.1000 -87.9000 270° West 217 250 7,000  Level Chicago TRACON
01:19PM 42.1000 -87.9667 270° West 220 253 7,000 -240 Level Chicago TRACON
01:20PM 42.1000 -88.0500 270° West 218 251 6,600 -1,080 Descending Chicago TRACON
01:21PM 42.1000 -88.1333 270° West 214 246 4,900 -1,380 Descending Chicago TRACON
01:22PM 42.0908 -88.1850 257° West 216 249 4,300 -540 Descending Chicago Center
01:23PM 42.0617 -88.2317 230° Southwest 212 244 4,000 -180 Descending Chicago Center
01:24PM 42.0122 -88.2169 168° South 194 223 4,000  Level Chicago Center
01:25PM 41.9847 -88.1456 117° Southeast 180 207 4,000 -480 Level Chicago Center
01:26PM 41.9836 -88.0792 91° East 182 209 3,100 -960 Descending Chicago Center
01:27PM 41.9833 -88.0131 90° East 180 207 2,100 -1,020 Descending Chicago Center